GMAD METAR and TAF | Updated Today

GMAD METAR

Al Massira Airport

Observation time: 21 min. ago

GMAD 061900Z 24010KT CAVOK 16/06 Q1017 NOSIG

Need help? Read our tutorial on how to read METARs or read the parsed version below.

Al Massira Airport (GMAD) METAR

  • Weather conditions on Mon, 06 Feb 2023 19:00:00 +0000 (21 min. ago):
  • Present conditions: Dry
  • Clouds: Clear skies
  • Visibility: Greater than 10 km
  • Wind: 240 degrees at 10 knots
  • Temperature: 16 celsius
  • Dew point: 6 celsius
  • Pressure: 1017 millibars
  • Remarks: None


Useful to know...

GMAD TAF

Al Massira Airport

TAF GMAD 061700Z 0618/0724 08006KT CAVOK BECMG 0712/0714 28012KT
Observation time: 2:21 hr. ago
Need help? Read our tutorial on how to read TAFs or read the parsed version below.

Parsed version of TAF for Al Massira Airport (GMAD)

  • From 06 February at 18:00 UTC, to day 07 of the month at 24:00 UTC
  • Visibility: Greater than 10 km
  • Wind: 80 degrees at 6
  • Expected to arise soon, from 07 February at 12:00 UTC, to day 07 of the month at 14:00 UTC
  • Wind: 280 degrees at 12

Airports near GMAD